createdAt,value
2023-05-02T00:01:46.044Z,76702.61
2023-05-02T00:04:13.272Z,76707.14
2023-05-02T00:06:42.980Z,76713.30
2023-05-02T00:09:10.718Z,76714.55
2023-05-02T00:11:37.937Z,76719.89
2023-05-02T00:14:05.100Z,76731.01
2023-05-02T00:16:32.302Z,76736.36
2023-05-02T00:18:59.496Z,76739.23
2023-05-02T00:21:29.463Z,76740.48
2023-05-02T00:23:57.603Z,76738.83
2023-05-02T00:26:25.094Z,76741.71
2023-05-02T00:28:52.306Z,76740.48
2023-05-02T00:31:19.495Z,76742.12
2023-05-02T00:33:46.604Z,76744.59
2023-05-02T00:36:18.615Z,76748.30
2023-05-02T00:38:47.356Z,76756.11
2023-05-02T00:41:14.563Z,76756.94
2023-05-02T00:43:41.695Z,76756.52
2023-05-02T00:46:10.831Z,76759.82
2023-05-02T00:48:37.950Z,76763.94
2023-05-02T00:51:09.191Z,76764.76
2023-05-02T00:53:36.789Z,76764.35
2023-05-02T00:56:04.045Z,76771.76
2023-05-02T00:58:31.187Z,76776.27
2023-05-02T01:01:20.059Z,76782.04
2023-05-02T01:04:00.347Z,76790.69
2023-05-02T01:06:43.816Z,76800.56
2023-05-02T01:09:37.940Z,76809.21
2023-05-02T01:12:06.159Z,76816.21
2023-05-02T01:14:41.607Z,76817.85
2023-05-02T01:17:13.239Z,76818.27
2023-05-02T01:19:42.580Z,76817.02
2023-05-02T01:22:10.110Z,76817.85
2023-05-02T01:25:14.527Z,76819.50
2023-05-02T01:28:15.229Z,76821.98
2023-05-02T01:30:42.897Z,76825.67
2023-05-02T01:33:12.162Z,76828.14
2023-05-02T01:35:39.314Z,76826.50
2023-05-02T01:38:06.564Z,76833.91
2023-05-02T01:40:34.012Z,76837.20
2023-05-02T01:43:03.850Z,76842.55
2023-05-02T01:45:31.897Z,76849.55
2023-05-02T01:47:59.410Z,76851.20
2023-05-02T01:50:27.522Z,76853.25
2023-05-02T01:52:54.983Z,76855.73
2023-05-02T01:55:22.218Z,76862.72
2023-05-02T01:57:50.699Z,76865.60
2023-05-02T02:00:17.960Z,76873.83
2023-05-02T02:02:46.841Z,76875.48
2023-05-02T02:05:14.107Z,76871.77
2023-05-02T02:07:41.752Z,76875.48
2023-05-02T02:10:09.222Z,76879.60
2023-05-02T02:12:39.344Z,76882.06
2023-05-02T02:15:10.637Z,76882.89
2023-05-02T02:18:01.508Z,76883.71
2023-05-02T02:20:29.810Z,76886.59
2023-05-02T02:22:58.149Z,76888.64
2023-05-02T02:25:27.226Z,76890.70
2023-05-02T02:27:56.332Z,76889.88
2023-05-02T02:30:26.561Z,76893.59
2023-05-02T02:32:53.761Z,76894.01
2023-05-02T02:35:21.191Z,76898.94
2023-05-02T02:37:48.673Z,76898.11
2023-05-02T02:40:34.433Z,76897.30
2023-05-02T02:43:10.923Z,76896.06
2023-05-02T02:46:04.949Z,76897.30
2023-05-02T02:48:36.354Z,76897.29
2023-05-02T02:51:14.281Z,76896.05
2023-05-02T02:53:52.814Z,76897.70
2023-05-02T02:56:22.863Z,76900.17
2023-05-02T02:59:00.673Z,76905.52
2023-05-02T03:03:43.891Z,76906.77
2023-05-02T03:06:12.313Z,76907.59
2023-05-02T03:08:43.447Z,76907.59
2023-05-02T03:11:14.569Z,76908.00
2023-05-02T03:13:42.292Z,76905.94
2023-05-02T03:16:19.774Z,76904.70
2023-05-02T03:18:47.188Z,76902.23
2023-05-02T03:21:15.929Z,76900.17
2023-05-02T03:23:43.682Z,76896.48
2023-05-02T03:26:15.175Z,76893.59
2023-05-02T03:28:42.860Z,76891.12
2023-05-02T03:31:11.340Z,76891.53
